sensor_id;sensor_type;location;lat;lon;timestamp;P1;durP1;ratioP1;P2;durP2;ratioP2
4603;SDS011;2314;48.272;11.562;2024-03-07T00:00:52;22.53;;;12.73;;
4603;SDS011;2314;48.272;11.562;2024-03-07T00:03:20;24.60;;;14.67;;
4603;SDS011;2314;48.272;11.562;2024-03-07T00:05:49;27.00;;;14.27;;
4603;SDS011;2314;48.272;11.562;2024-03-07T00:08:16;27.57;;;14.43;;
4603;SDS011;2314;48.272;11.562;2024-03-07T00:10:45;27.27;;;14.70;;
4603;SDS011;2314;48.272;11.562;2024-03-07T00:13:12;26.60;;;14.50;;
4603;SDS011;2314;48.272;11.562;2024-03-07T00:15:39;28.00;;;13.83;;
4603;SDS011;2314;48.272;11.562;2024-03-07T00:18:06;28.13;;;14.63;;
4603;SDS011;2314;48.272;11.562;2024-03-07T00:20:35;28.17;;;14.90;;
4603;SDS011;2314;48.272;11.562;2024-03-07T00:23:03;25.07;;;14.47;;
4603;SDS011;2314;48.272;11.562;2024-03-07T00:25:30;24.43;;;13.50;;
4603;SDS011;2314;48.272;11.562;2024-03-07T00:27:58;24.80;;;14.00;;
4603;SDS011;2314;48.272;11.562;2024-03-07T00:30:28;28.67;;;15.93;;
4603;SDS011;2314;48.272;11.562;2024-03-07T00:32:55;26.27;;;15.07;;
4603;SDS011;2314;48.272;11.562;2024-03-07T00:35:22;24.87;;;14.77;;
4603;SDS011;2314;48.272;11.562;2024-03-07T00:37:50;27.37;;;15.30;;
4603;SDS011;2314;48.272;11.562;2024-03-07T00:40:17;24.60;;;14.80;;
4603;SDS011;2314;48.272;11.562;2024-03-07T00:42:44;25.27;;;14.47;;
4603;SDS011;2314;48.272;11.562;2024-03-07T00:45:12;28.57;;;15.20;;
4603;SDS011;2314;48.272;11.562;2024-03-07T00:47:40;24.20;;;13.90;;
4603;SDS011;2314;48.272;11.562;2024-03-07T00:50:07;25.97;;;14.70;;
4603;SDS011;2314;48.272;11.562;2024-03-07T00:52:35;25.90;;;14.00;;
4603;SDS011;2314;48.272;11.562;2024-03-07T00:55:04;27.00;;;15.20;;
4603;SDS011;2314;48.272;11.562;2024-03-07T00:57:33;26.57;;;14.53;;
4603;SDS011;2314;48.272;11.562;2024-03-07T01:00:00;25.87;;;14.20;;
4603;SDS011;2314;48.272;11.562;2024-03-07T01:02:29;33.20;;;16.20;;
4603;SDS011;2314;48.272;11.562;2024-03-07T01:04:56;27.97;;;16.47;;
4603;SDS011;2314;48.272;11.562;2024-03-07T01:07:24;27.67;;;15.20;;
4603;SDS011;2314;48.272;11.562;2024-03-07T01:09:53;24.80;;;15.40;;
4603;SDS011;2314;48.272;11.562;2024-03-07T01:12:20;32.27;;;16.10;;
4603;SDS011;2314;48.272;11.562;2024-03-07T01:14:49;32.10;;;15.50;;
4603;SDS011;2314;48.272;11.562;2024-03-07T01:17:16;29.63;;;17.10;;
4603;SDS011;2314;48.272;11.562;2024-03-07T01:19:44;32.23;;;15.53;;
4603;SDS011;2314;48.272;11.562;2024-03-07T01:22:11;31.80;;;15.70;;
4603;SDS011;2314;48.272;11.562;2024-03-07T01:24:38;29.53;;;17.97;;
4603;SDS011;2314;48.272;11.562;2024-03-07T01:27:06;32.90;;;17.40;;
4603;SDS011;2314;48.272;11.562;2024-03-07T01:29:33;35.60;;;17.90;;
4603;SDS011;2314;48.272;11.562;2024-03-07T01:32:00;30.57;;;16.10;;
4603;SDS011;2314;48.272;11.562;2024-03-07T01:34:28;37.30;;;18.30;;
4603;SDS011;2314;48.272;11.562;2024-03-07T01:36:56;35.10;;;17.80;;
4603;SDS011;2314;48.272;11.562;2024-03-07T01:39:23;33.53;;;18.50;;
4603;SDS011;2314;48.272;11.562;2024-03-07T01:41:51;34.83;;;18.40;;
4603;SDS011;2314;48.272;11.562;2024-03-07T01:44:18;45.30;;;23.03;;
4603;SDS011;2314;48.272;11.562;2024-03-07T01:46:45;37.47;;;19.20;;
4603;SDS011;2314;48.272;11.562;2024-03-07T01:49:12;39.33;;;20.63;;
4603;SDS011;2314;48.272;11.562;2024-03-07T01:51:39;43.50;;;21.10;;
4603;SDS011;2314;48.272;11.562;2024-03-07T01:54:09;46.70;;;22.27;;
4603;SDS011;2314;48.272;11.562;2024-03-07T01:56:37;47.00;;;22.40;;
4603;SDS011;2314;48.272;11.562;2024-03-07T01:59:05;46.40;;;23.47;;
4603;SDS011;2314;48.272;11.562;2024-03-07T02:01:33;46.87;;;24.67;;
4603;SDS011;2314;48.272;11.562;2024-03-07T02:04:01;49.63;;;25.30;;
4603;SDS011;2314;48.272;11.562;2024-03-07T02:06:29;51.50;;;26.73;;
4603;SDS011;2314;48.272;11.562;2024-03-07T02:08:56;50.70;;;23.57;;
4603;SDS011;2314;48.272;11.562;2024-03-07T02:11:25;51.63;;;23.60;;
4603;SDS011;2314;48.272;11.562;2024-03-07T02:13:52;52.37;;;26.47;;
4603;SDS011;2314;48.272;11.562;2024-03-07T02:16:19;47.47;;;23.13;;
4603;SDS011;2314;48.272;11.562;2024-03-07T02:18:46;55.10;;;26.60;;
4603;SDS011;2314;48.272;11.562;2024-03-07T02:21:14;51.67;;;25.80;;
4603;SDS011;2314;48.272;11.562;2024-03-07T02:23:42;56.50;;;25.27;;
4603;SDS011;2314;48.272;11.562;2024-03-07T02:26:09;55.60;;;26.20;;
4603;SDS011;2314;48.272;11.562;2024-03-07T02:28:36;53.40;;;25.93;;
4603;SDS011;2314;48.272;11.562;2024-03-07T02:31:03;49.13;;;24.10;;
4603;SDS011;2314;48.272;11.562;2024-03-07T02:33:30;51.57;;;24.50;;
4603;SDS011;2314;48.272;11.562;2024-03-07T02:35:57;53.30;;;26.37;;
4603;SDS011;2314;48.272;11.562;2024-03-07T02:38:25;51.60;;;24.83;;
4603;SDS011;2314;48.272;11.562;2024-03-07T02:40:52;53.87;;;25.43;;
4603;SDS011;2314;48.272;11.562;2024-03-07T02:43:19;51.67;;;25.80;;
4603;SDS011;2314;48.272;11.562;2024-03-07T02:45:46;48.10;;;23.13;;
4603;SDS011;2314;48.272;11.562;2024-03-07T02:48:15;43.30;;;22.10;;
4603;SDS011;2314;48.272;11.562;2024-03-07T02:50:43;49.10;;;25.13;;
4603;SDS011;2314;48.272;11.562;2024-03-07T02:53:10;49.50;;;24.97;;
4603;SDS011;2314;48.272;11.562;2024-03-07T02:55:38;53.83;;;24.83;;
4603;SDS011;2314;48.272;11.562;2024-03-07T02:58:06;47.37;;;24.47;;
4603;SDS011;2314;48.272;11.562;2024-03-07T03:00:33;53.30;;;26.30;;
4603;SDS011;2314;48.272;11.562;2024-03-07T03:03:01;48.63;;;25.53;;
4603;SDS011;2314;48.272;11.562;2024-03-07T03:05:28;52.50;;;26.37;;
4603;SDS011;2314;48.272;11.562;2024-03-07T03:07:55;48.47;;;24.10;;
4603;SDS011;2314;48.272;11.562;2024-03-07T03:10:22;62.03;;;26.80;;
4603;SDS011;2314;48.272;11.562;2024-03-07T03:12:55;48.43;;;24.90;;
4603;SDS011;2314;48.272;11.562;2024-03-07T03:15:24;52.47;;;25.80;;
4603;SDS011;2314;48.272;11.562;2024-03-07T03:17:51;51.70;;;25.97;;
4603;SDS011;2314;48.272;11.562;2024-03-07T03:20:18;52.90;;;26.97;;
4603;SDS011;2314;48.272;11.562;2024-03-07T03:22:51;45.73;;;24.67;;
4603;SDS011;2314;48.272;11.562;2024-03-07T03:25:18;49.13;;;26.33;;
4603;SDS011;2314;48.272;11.562;2024-03-07T03:27:46;52.97;;;25.40;;
4603;SDS011;2314;48.272;11.562;2024-03-07T03:30:15;52.10;;;27.63;;
4603;SDS011;2314;48.272;11.562;2024-03-07T03:32:43;52.37;;;25.90;;
4603;SDS011;2314;48.272;11.562;2024-03-07T03:35:12;51.13;;;25.47;;
4603;SDS011;2314;48.272;11.562;2024-03-07T03:37:40;52.50;;;28.00;;
4603;SDS011;2314;48.272;11.562;2024-03-07T03:40:08;56.87;;;27.87;;
4603;SDS011;2314;48.272;11.562;2024-03-07T03:42:38;55.17;;;27.10;;
4603;SDS011;2314;48.272;11.562;2024-03-07T03:45:06;54.93;;;27.30;;
4603;SDS011;2314;48.272;11.562;2024-03-07T03:47:41;49.80;;;25.07;;
4603;SDS011;2314;48.272;11.562;2024-03-07T03:50:09;61.97;;;28.83;;
4603;SDS011;2314;48.272;11.562;2024-03-07T03:52:37;57.67;;;27.87;;
4603;SDS011;2314;48.272;11.562;2024-03-07T03:55:06;64.03;;;28.20;;
4603;SDS011;2314;48.272;11.562;2024-03-07T03:57:35;62.43;;;28.37;;
4603;SDS011;2314;48.272;11.562;2024-03-07T04:00:04;58.60;;;31.30;;
4603;SDS011;2314;48.272;11.562;2024-03-07T04:02:37;63.33;;;30.03;;
4603;SDS011;2314;48.272;11.562;2024-03-07T04:05:07;66.93;;;32.10;;
4603;SDS011;2314;48.272;11.562;2024-03-07T04:07:35;73.17;;;32.13;;
4603;SDS011;2314;48.272;11.562;2024-03-07T04:10:03;60.20;;;29.60;;
4603;SDS011;2314;48.272;11.562;2024-03-07T04:12:32;67.00;;;31.60;;
4603;SDS011;2314;48.272;11.562;2024-03-07T04:15:00;67.27;;;33.17;;
4603;SDS011;2314;48.272;11.562;2024-03-07T04:17:29;66.60;;;33.37;;
4603;SDS011;2314;48.272;11.562;2024-03-07T04:19:58;66.40;;;32.20;;
4603;SDS011;2314;48.272;11.562;2024-03-07T04:22:25;62.70;;;31.40;;
4603;SDS011;2314;48.272;11.562;2024-03-07T04:24:53;62.80;;;32.03;;
4603;SDS011;2314;48.272;11.562;2024-03-07T04:27:20;69.17;;;33.90;;
4603;SDS011;2314;48.272;11.562;2024-03-07T04:29:47;66.97;;;31.23;;
4603;SDS011;2314;48.272;11.562;2024-03-07T04:32:15;63.47;;;31.63;;
4603;SDS011;2314;48.272;11.562;2024-03-07T04:34:42;63.67;;;31.27;;
4603;SDS011;2314;48.272;11.562;2024-03-07T04:37:11;65.00;;;31.23;;
4603;SDS011;2314;48.272;11.562;2024-03-07T04:39:39;66.80;;;33.63;;
4603;SDS011;2314;48.272;11.562;2024-03-07T04:42:07;63.93;;;32.47;;
4603;SDS011;2314;48.272;11.562;2024-03-07T04:44:36;59.60;;;29.00;;
4603;SDS011;2314;48.272;11.562;2024-03-07T04:47:04;63.43;;;31.50;;
4603;SDS011;2314;48.272;11.562;2024-03-07T04:49:32;59.97;;;28.67;;
4603;SDS011;2314;48.272;11.562;2024-03-07T04:52:01;61.57;;;30.20;;
4603;SDS011;2314;48.272;11.562;2024-03-07T04:54:31;59.57;;;31.20;;
4603;SDS011;2314;48.272;11.562;2024-03-07T04:56:59;59.27;;;30.33;;
4603;SDS011;2314;48.272;11.562;2024-03-07T04:59:26;62.53;;;29.67;;
4603;SDS011;2314;48.272;11.562;2024-03-07T05:01:53;67.47;;;30.20;;
4603;SDS011;2314;48.272;11.562;2024-03-07T05:04:20;61.23;;;30.73;;
4603;SDS011;2314;48.272;11.562;2024-03-07T05:06:50;66.93;;;31.83;;
4603;SDS011;2314;48.272;11.562;2024-03-07T05:09:17;64.20;;;32.40;;
4603;SDS011;2314;48.272;11.562;2024-03-07T05:11:55;63.33;;;30.50;;
4603;SDS011;2314;48.272;11.562;2024-03-07T05:14:25;53.83;;;28.70;;
4603;SDS011;2314;48.272;11.562;2024-03-07T05:16:52;54.20;;;28.53;;
4603;SDS011;2314;48.272;11.562;2024-03-07T05:19:30;57.37;;;29.90;;
4603;SDS011;2314;48.272;11.562;2024-03-07T05:21:58;61.20;;;30.27;;
4603;SDS011;2314;48.272;11.562;2024-03-07T05:24:25;67.43;;;31.07;;
4603;SDS011;2314;48.272;11.562;2024-03-07T05:26:53;64.43;;;29.10;;
4603;SDS011;2314;48.272;11.562;2024-03-07T05:29:21;54.43;;;28.63;;
4603;SDS011;2314;48.272;11.562;2024-03-07T05:31:49;65.20;;;31.37;;
4603;SDS011;2314;48.272;11.562;2024-03-07T05:34:16;66.17;;;31.30;;
4603;SDS011;2314;48.272;11.562;2024-03-07T05:36:44;69.17;;;31.03;;
4603;SDS011;2314;48.272;11.562;2024-03-07T05:39:12;61.87;;;31.10;;
4603;SDS011;2314;48.272;11.562;2024-03-07T05:41:41;63.27;;;31.90;;
4603;SDS011;2314;48.272;11.562;2024-03-07T05:44:11;70.07;;;31.13;;
4603;SDS011;2314;48.272;11.562;2024-03-07T05:46:38;58.80;;;28.83;;
4603;SDS011;2314;48.272;11.562;2024-03-07T05:49:11;60.50;;;30.40;;
4603;SDS011;2314;48.272;11.562;2024-03-07T05:51:38;65.20;;;31.00;;
4603;SDS011;2314;48.272;11.562;2024-03-07T05:54:07;71.30;;;31.90;;
4603;SDS011;2314;48.272;11.562;2024-03-07T05:56:34;63.17;;;31.63;;
4603;SDS011;2314;48.272;11.562;2024-03-07T05:59:02;61.80;;;30.17;;
4603;SDS011;2314;48.272;11.562;2024-03-07T06:01:31;66.40;;;31.43;;
4603;SDS011;2314;48.272;11.562;2024-03-07T06:03:59;58.43;;;30.80;;
4603;SDS011;2314;48.272;11.562;2024-03-07T06:06:26;63.57;;;29.63;;
4603;SDS011;2314;48.272;11.562;2024-03-07T06:08:54;59.27;;;29.97;;
4603;SDS011;2314;48.272;11.562;2024-03-07T06:11:22;63.70;;;31.23;;
4603;SDS011;2314;48.272;11.562;2024-03-07T06:13:49;66.50;;;31.27;;
4603;SDS011;2314;48.272;11.562;2024-03-07T06:16:15;59.17;;;29.57;;
4603;SDS011;2314;48.272;11.562;2024-03-07T06:18:44;66.73;;;29.27;;
4603;SDS011;2314;48.272;11.562;2024-03-07T06:21:12;65.00;;;32.27;;
4603;SDS011;2314;48.272;11.562;2024-03-07T06:23:39;58.70;;;29.40;;
4603;SDS011;2314;48.272;11.562;2024-03-07T06:26:08;57.83;;;30.30;;
4603;SDS011;2314;48.272;11.562;2024-03-07T06:28:41;60.10;;;29.10;;
4603;SDS011;2314;48.272;11.562;2024-03-07T06:31:10;60.00;;;29.47;;
4603;SDS011;2314;48.272;11.562;2024-03-07T06:33:37;67.47;;;31.73;;
4603;SDS011;2314;48.272;11.562;2024-03-07T06:36:05;56.40;;;28.00;;
4603;SDS011;2314;48.272;11.562;2024-03-07T06:38:34;55.67;;;28.87;;
4603;SDS011;2314;48.272;11.562;2024-03-07T06:41:01;54.20;;;28.97;;
4603;SDS011;2314;48.272;11.562;2024-03-07T06:43:28;54.10;;;27.67;;
4603;SDS011;2314;48.272;11.562;2024-03-07T06:45:55;53.10;;;27.93;;
4603;SDS011;2314;48.272;11.562;2024-03-07T06:48:22;55.80;;;28.83;;
4603;SDS011;2314;48.272;11.562;2024-03-07T06:50:49;55.00;;;29.50;;
4603;SDS011;2314;48.272;11.562;2024-03-07T06:53:19;64.83;;;29.27;;
4603;SDS011;2314;48.272;11.562;2024-03-07T06:55:51;51.97;;;26.67;;
4603;SDS011;2314;48.272;11.562;2024-03-07T06:58:18;62.77;;;28.50;;
4603;SDS011;2314;48.272;11.562;2024-03-07T07:00:46;55.40;;;28.07;;
4603;SDS011;2314;48.272;11.562;2024-03-07T07:03:13;52.93;;;27.20;;
4603;SDS011;2314;48.272;11.562;2024-03-07T07:05:40;57.13;;;29.93;;
4603;SDS011;2314;48.272;11.562;2024-03-07T07:08:07;62.00;;;29.10;;
4603;SDS011;2314;48.272;11.562;2024-03-07T07:10:35;57.63;;;29.80;;
4603;SDS011;2314;48.272;11.562;2024-03-07T07:13:04;58.00;;;30.47;;
4603;SDS011;2314;48.272;11.562;2024-03-07T07:15:31;58.90;;;29.17;;
4603;SDS011;2314;48.272;11.562;2024-03-07T07:17:59;57.97;;;31.67;;
4603;SDS011;2314;48.272;11.562;2024-03-07T07:20:27;57.43;;;29.90;;
4603;SDS011;2314;48.272;11.562;2024-03-07T07:22:54;49.67;;;28.03;;
4603;SDS011;2314;48.272;11.562;2024-03-07T07:25:23;54.60;;;26.97;;
4603;SDS011;2314;48.272;11.562;2024-03-07T07:27:53;58.83;;;30.00;;
4603;SDS011;2314;48.272;11.562;2024-03-07T07:30:21;53.67;;;28.20;;
4603;SDS011;2314;48.272;11.562;2024-03-07T07:32:49;55.87;;;29.90;;
4603;SDS011;2314;48.272;11.562;2024-03-07T07:35:19;54.13;;;28.57;;
4603;SDS011;2314;48.272;11.562;2024-03-07T07:37:47;54.10;;;27.07;;
4603;SDS011;2314;48.272;11.562;2024-03-07T07:40:16;54.10;;;27.77;;
4603;SDS011;2314;48.272;11.562;2024-03-07T07:42:48;61.17;;;32.13;;
4603;SDS011;2314;48.272;11.562;2024-03-07T07:45:18;62.63;;;31.67;;
4603;SDS011;2314;48.272;11.562;2024-03-07T07:47:48;53.13;;;27.37;;
4603;SDS011;2314;48.272;11.562;2024-03-07T07:50:17;53.67;;;29.23;;
4603;SDS011;2314;48.272;11.562;2024-03-07T07:52:47;54.37;;;28.00;;
4603;SDS011;2314;48.272;11.562;2024-03-07T07:55:16;59.13;;;30.37;;
4603;SDS011;2314;48.272;11.562;2024-03-07T07:57:46;55.23;;;29.17;;
4603;SDS011;2314;48.272;11.562;2024-03-07T08:00:19;52.40;;;28.67;;
4603;SDS011;2314;48.272;11.562;2024-03-07T08:02:51;57.47;;;29.97;;
4603;SDS011;2314;48.272;11.562;2024-03-07T08:05:20;50.83;;;28.43;;
4603;SDS011;2314;48.272;11.562;2024-03-07T08:07:49;49.93;;;27.33;;
4603;SDS011;2314;48.272;11.562;2024-03-07T08:10:17;44.83;;;24.10;;
4603;SDS011;2314;48.272;11.562;2024-03-07T08:12:45;51.23;;;25.83;;
4603;SDS011;2314;48.272;11.562;2024-03-07T08:15:13;49.80;;;27.17;;
4603;SDS011;2314;48.272;11.562;2024-03-07T08:17:43;44.90;;;25.57;;
4603;SDS011;2314;48.272;11.562;2024-03-07T08:20:12;47.50;;;27.30;;
4603;SDS011;2314;48.272;11.562;2024-03-07T08:22:40;50.53;;;26.90;;
4603;SDS011;2314;48.272;11.562;2024-03-07T08:25:09;46.60;;;24.60;;
4603;SDS011;2314;48.272;11.562;2024-03-07T08:27:37;52.13;;;26.60;;
4603;SDS011;2314;48.272;11.562;2024-03-07T08:30:11;46.30;;;24.43;;
4603;SDS011;2314;48.272;11.562;2024-03-07T08:32:49;44.57;;;25.70;;
4603;SDS011;2314;48.272;11.562;2024-03-07T08:35:27;49.37;;;25.87;;
4603;SDS011;2314;48.272;11.562;2024-03-07T08:37:55;47.80;;;24.93;;
4603;SDS011;2314;48.272;11.562;2024-03-07T08:40:23;45.40;;;22.70;;
4603;SDS011;2314;48.272;11.562;2024-03-07T08:42:57;45.53;;;24.83;;
4603;SDS011;2314;48.272;11.562;2024-03-07T08:45:29;42.67;;;24.00;;
4603;SDS011;2314;48.272;11.562;2024-03-07T08:47:59;50.13;;;26.87;;
4603;SDS011;2314;48.272;11.562;2024-03-07T08:50:29;45.07;;;24.73;;
4603;SDS011;2314;48.272;11.562;2024-03-07T08:52:59;44.37;;;23.70;;
4603;SDS011;2314;48.272;11.562;2024-03-07T08:55:29;42.37;;;23.20;;
4603;SDS011;2314;48.272;11.562;2024-03-07T08:58:03;43.57;;;23.57;;
4603;SDS011;2314;48.272;11.562;2024-03-07T09:00:33;44.00;;;24.53;;
4603;SDS011;2314;48.272;11.562;2024-03-07T09:03:02;39.87;;;21.83;;
4603;SDS011;2314;48.272;11.562;2024-03-07T09:05:34;47.00;;;25.47;;
4603;SDS011;2314;48.272;11.562;2024-03-07T09:08:02;39.33;;;22.50;;
4603;SDS011;2314;48.272;11.562;2024-03-07T09:10:32;40.87;;;22.37;;
4603;SDS011;2314;48.272;11.562;2024-03-07T09:13:08;43.53;;;21.73;;
4603;SDS011;2314;48.272;11.562;2024-03-07T09:15:36;36.87;;;21.60;;
4603;SDS011;2314;48.272;11.562;2024-03-07T09:18:08;40.33;;;21.23;;
4603;SDS011;2314;48.272;11.562;2024-03-07T09:20:36;40.80;;;21.77;;
4603;SDS011;2314;48.272;11.562;2024-03-07T09:23:04;41.97;;;23.27;;
4603;SDS011;2314;48.272;11.562;2024-03-07T09:25:32;39.93;;;22.17;;
4603;SDS011;2314;48.272;11.562;2024-03-07T09:27:59;35.87;;;21.57;;
4603;SDS011;2314;48.272;11.562;2024-03-07T09:30:26;38.60;;;20.67;;
4603;SDS011;2314;48.272;11.562;2024-03-07T09:32:55;39.90;;;22.30;;
4603;SDS011;2314;48.272;11.562;2024-03-07T09:35:23;39.70;;;21.70;;
4603;SDS011;2314;48.272;11.562;2024-03-07T09:37:51;40.60;;;22.17;;
4603;SDS011;2314;48.272;11.562;2024-03-07T09:40:18;40.10;;;22.97;;
4603;SDS011;2314;48.272;11.562;2024-03-07T09:42:49;37.30;;;21.57;;
4603;SDS011;2314;48.272;11.562;2024-03-07T09:45:18;40.77;;;23.37;;
4603;SDS011;2314;48.272;11.562;2024-03-07T09:47:47;38.43;;;22.23;;
4603;SDS011;2314;48.272;11.562;2024-03-07T09:50:17;39.33;;;22.73;;
4603;SDS011;2314;48.272;11.562;2024-03-07T09:52:48;43.83;;;23.90;;
4603;SDS011;2314;48.272;11.562;2024-03-07T09:55:16;42.07;;;22.17;;
4603;SDS011;2314;48.272;11.562;2024-03-07T09:57:45;39.77;;;21.43;;
4603;SDS011;2314;48.272;11.562;2024-03-07T10:00:13;41.37;;;21.33;;
4603;SDS011;2314;48.272;11.562;2024-03-07T10:02:48;37.27;;;20.87;;
4603;SDS011;2314;48.272;11.562;2024-03-07T10:05:21;36.77;;;20.87;;
4603;SDS011;2314;48.272;11.562;2024-03-07T10:08:03;38.00;;;22.50;;
4603;SDS011;2314;48.272;11.562;2024-03-07T10:10:38;39.30;;;22.23;;
4603;SDS011;2314;48.272;11.562;2024-03-07T10:13:05;44.90;;;21.67;;
4603;SDS011;2314;48.272;11.562;2024-03-07T10:15:34;36.83;;;20.47;;
4603;SDS011;2314;48.272;11.562;2024-03-07T10:18:06;45.67;;;23.97;;
4603;SDS011;2314;48.272;11.562;2024-03-07T10:20:35;39.27;;;22.77;;
4603;SDS011;2314;48.272;11.562;2024-03-07T10:23:06;39.47;;;21.97;;
4603;SDS011;2314;48.272;11.562;2024-03-07T10:25:33;40.30;;;23.30;;
4603;SDS011;2314;48.272;11.562;2024-03-07T10:28:02;38.30;;;22.00;;
4603;SDS011;2314;48.272;11.562;2024-03-07T10:30:31;45.27;;;22.07;;
4603;SDS011;2314;48.272;11.562;2024-03-07T10:33:06;35.47;;;20.80;;
4603;SDS011;2314;48.272;11.562;2024-03-07T10:35:33;43.70;;;23.63;;
4603;SDS011;2314;48.272;11.562;2024-03-07T10:38:00;43.00;;;22.70;;
4603;SDS011;2314;48.272;11.562;2024-03-07T10:40:32;37.40;;;20.60;;
4603;SDS011;2314;48.272;11.562;2024-03-07T10:43:03;41.60;;;21.23;;
4603;SDS011;2314;48.272;11.562;2024-03-07T10:45:37;42.57;;;23.10;;
4603;SDS011;2314;48.272;11.562;2024-03-07T10:48:11;40.03;;;22.70;;
4603;SDS011;2314;48.272;11.562;2024-03-07T10:50:42;36.73;;;21.07;;
4603;SDS011;2314;48.272;11.562;2024-03-07T10:53:19;47.40;;;21.40;;
4603;SDS011;2314;48.272;11.562;2024-03-07T10:55:56;37.47;;;20.43;;
4603;SDS011;2314;48.272;11.562;2024-03-07T10:58:42;35.87;;;20.23;;
4603;SDS011;2314;48.272;11.562;2024-03-07T11:01:24;38.80;;;20.80;;
4603;SDS011;2314;48.272;11.562;2024-03-07T11:03:58;35.97;;;20.47;;
4603;SDS011;2314;48.272;11.562;2024-03-07T11:06:29;37.57;;;20.03;;
4603;SDS011;2314;48.272;11.562;2024-03-07T11:08:59;33.17;;;18.30;;
4603;SDS011;2314;48.272;11.562;2024-03-07T11:11:36;36.30;;;20.20;;
4603;SDS011;2314;48.272;11.562;2024-03-07T11:14:06;33.97;;;20.50;;
4603;SDS011;2314;48.272;11.562;2024-03-07T11:16:36;32.57;;;17.43;;
4603;SDS011;2314;48.272;11.562;2024-03-07T11:19:17;33.80;;;19.77;;
4603;SDS011;2314;48.272;11.562;2024-03-07T11:21:52;37.07;;;18.57;;
4603;SDS011;2314;48.272;11.562;2024-03-07T11:24:24;31.97;;;18.93;;
4603;SDS011;2314;48.272;11.562;2024-03-07T11:26:55;35.73;;;20.03;;
4603;SDS011;2314;48.272;11.562;2024-03-07T11:29:42;33.40;;;18.87;;
4603;SDS011;2314;48.272;11.562;2024-03-07T11:32:17;36.00;;;19.30;;
4603;SDS011;2314;48.272;11.562;2024-03-07T11:34:47;35.97;;;19.63;;
4603;SDS011;2314;48.272;11.562;2024-03-07T11:37:18;35.70;;;19.50;;
4603;SDS011;2314;48.272;11.562;2024-03-07T11:39:48;31.80;;;19.13;;
4603;SDS011;2314;48.272;11.562;2024-03-07T11:42:26;32.03;;;19.93;;
4603;SDS011;2314;48.272;11.562;2024-03-07T11:44:56;34.47;;;18.87;;
4603;SDS011;2314;48.272;11.562;2024-03-07T11:47:24;34.60;;;19.47;;
4603;SDS011;2314;48.272;11.562;2024-03-07T11:49:54;35.63;;;20.60;;
4603;SDS011;2314;48.272;11.562;2024-03-07T11:52:23;34.00;;;19.07;;
4603;SDS011;2314;48.272;11.562;2024-03-07T11:54:52;38.30;;;19.93;;
4603;SDS011;2314;48.272;11.562;2024-03-07T11:57:30;37.20;;;20.13;;
4603;SDS011;2314;48.272;11.562;2024-03-07T11:59:58;37.07;;;19.57;;
4603;SDS011;2314;48.272;11.562;2024-03-07T12:02:32;34.57;;;18.83;;
4603;SDS011;2314;48.272;11.562;2024-03-07T12:05:02;33.37;;;18.87;;
4603;SDS011;2314;48.272;11.562;2024-03-07T12:07:30;35.73;;;19.00;;
4603;SDS011;2314;48.272;11.562;2024-03-07T12:09:58;43.47;;;21.97;;
4603;SDS011;2314;48.272;11.562;2024-03-07T12:12:30;39.20;;;20.87;;
4603;SDS011;2314;48.272;11.562;2024-03-07T12:14:58;37.00;;;19.53;;
4603;SDS011;2314;48.272;11.562;2024-03-07T12:17:27;34.33;;;20.03;;
4603;SDS011;2314;48.272;11.562;2024-03-07T12:19:55;34.20;;;18.97;;
4603;SDS011;2314;48.272;11.562;2024-03-07T12:22:26;34.83;;;19.53;;
4603;SDS011;2314;48.272;11.562;2024-03-07T12:25:02;35.97;;;20.27;;
4603;SDS011;2314;48.272;11.562;2024-03-07T12:27:34;36.97;;;20.60;;
4603;SDS011;2314;48.272;11.562;2024-03-07T12:30:03;35.03;;;18.60;;
4603;SDS011;2314;48.272;11.562;2024-03-07T12:32:47;30.33;;;19.07;;
4603;SDS011;2314;48.272;11.562;2024-03-07T12:35:15;37.97;;;19.93;;
4603;SDS011;2314;48.272;11.562;2024-03-07T12:37:43;36.40;;;19.83;;
4603;SDS011;2314;48.272;11.562;2024-03-07T12:40:11;30.67;;;17.53;;
4603;SDS011;2314;48.272;11.562;2024-03-07T12:42:47;32.40;;;18.00;;
4603;SDS011;2314;48.272;11.562;2024-03-07T12:45:18;33.73;;;17.90;;
4603;SDS011;2314;48.272;11.562;2024-03-07T12:47:46;35.27;;;18.83;;
4603;SDS011;2314;48.272;11.562;2024-03-07T12:50:15;35.50;;;18.20;;
4603;SDS011;2314;48.272;11.562;2024-03-07T12:52:45;29.87;;;17.00;;
4603;SDS011;2314;48.272;11.562;2024-03-07T12:55:14;33.20;;;20.07;;
4603;SDS011;2314;48.272;11.562;2024-03-07T12:57:47;30.87;;;16.80;;
4603;SDS011;2314;48.272;11.562;2024-03-07T13:00:16;28.03;;;17.30;;
4603;SDS011;2314;48.272;11.562;2024-03-07T13:02:46;32.90;;;18.00;;
4603;SDS011;2314;48.272;11.562;2024-03-07T13:05:13;30.03;;;17.57;;
4603;SDS011;2314;48.272;11.562;2024-03-07T13:07:45;30.67;;;18.00;;
4603;SDS011;2314;48.272;11.562;2024-03-07T13:10:13;32.63;;;18.60;;
4603;SDS011;2314;48.272;11.562;2024-03-07T13:12:41;33.73;;;17.87;;
4603;SDS011;2314;48.272;11.562;2024-03-07T13:15:12;37.17;;;17.70;;
4603;SDS011;2314;48.272;11.562;2024-03-07T13:17:39;29.53;;;16.63;;
4603;SDS011;2314;48.272;11.562;2024-03-07T13:20:08;31.70;;;17.57;;
4603;SDS011;2314;48.272;11.562;2024-03-07T13:22:40;29.97;;;16.57;;
4603;SDS011;2314;48.272;11.562;2024-03-07T13:25:09;37.73;;;18.60;;
4603;SDS011;2314;48.272;11.562;2024-03-07T13:27:43;29.50;;;17.40;;
4603;SDS011;2314;48.272;11.562;2024-03-07T13:30:21;31.30;;;17.20;;
4603;SDS011;2314;48.272;11.562;2024-03-07T13:32:52;33.90;;;18.53;;
4603;SDS011;2314;48.272;11.562;2024-03-07T13:35:20;30.70;;;17.17;;
4603;SDS011;2314;48.272;11.562;2024-03-07T13:37:49;32.00;;;16.20;;
4603;SDS011;2314;48.272;11.562;2024-03-07T13:40:17;28.63;;;17.10;;
4603;SDS011;2314;48.272;11.562;2024-03-07T13:42:53;31.83;;;16.87;;
4603;SDS011;2314;48.272;11.562;2024-03-07T13:45:23;32.40;;;17.87;;
4603;SDS011;2314;48.272;11.562;2024-03-07T13:47:52;33.07;;;17.60;;
4603;SDS011;2314;48.272;11.562;2024-03-07T13:50:21;31.57;;;16.83;;
4603;SDS011;2314;48.272;11.562;2024-03-07T13:52:50;28.50;;;17.30;;
4603;SDS011;2314;48.272;11.562;2024-03-07T13:55:40;31.30;;;17.70;;
4603;SDS011;2314;48.272;11.562;2024-03-07T13:58:25;36.10;;;18.27;;
4603;SDS011;2314;48.272;11.562;2024-03-07T14:04:12;33.63;;;17.67;;
4603;SDS011;2314;48.272;11.562;2024-03-07T14:07:13;32.90;;;19.03;;
4603;SDS011;2314;48.272;11.562;2024-03-07T14:10:16;37.87;;;19.63;;
4603;SDS011;2314;48.272;11.562;2024-03-07T14:13:46;34.77;;;17.63;;
4603;SDS011;2314;48.272;11.562;2024-03-07T14:16:53;35.30;;;19.80;;
4603;SDS011;2314;48.272;11.562;2024-03-07T14:23:20;34.93;;;19.50;;
4603;SDS011;2314;48.272;11.562;2024-03-07T14:26:28;37.50;;;19.90;;
4603;SDS011;2314;48.272;11.562;2024-03-07T14:29:20;35.13;;;18.93;;
4603;SDS011;2314;48.272;11.562;2024-03-07T14:31:56;33.30;;;19.10;;
4603;SDS011;2314;48.272;11.562;2024-03-07T14:34:32;39.10;;;20.17;;
4603;SDS011;2314;48.272;11.562;2024-03-07T14:37:17;38.50;;;20.30;;
4603;SDS011;2314;48.272;11.562;2024-03-07T14:39:50;33.73;;;18.40;;
4603;SDS011;2314;48.272;11.562;2024-03-07T14:42:22;36.63;;;18.97;;
4603;SDS011;2314;48.272;11.562;2024-03-07T14:44:49;31.53;;;18.60;;
4603;SDS011;2314;48.272;11.562;2024-03-07T14:47:19;35.13;;;19.00;;
4603;SDS011;2314;48.272;11.562;2024-03-07T14:49:47;29.50;;;16.93;;
4603;SDS011;2314;48.272;11.562;2024-03-07T14:52:14;35.33;;;17.10;;
4603;SDS011;2314;48.272;11.562;2024-03-07T14:54:42;29.87;;;15.93;;
4603;SDS011;2314;48.272;11.562;2024-03-07T14:57:09;32.40;;;17.50;;